Time;durP1;ratioP1;P1;durP2;ratioP2;P2;SDS_P1;SDS_P2;PMS_P1;PMS_P2;Temp;Humidity;BMP_temperature;BMP_pressure;BME280_temperature;BME280_humidity;BME280_pressure;Samples;Min_cycle;Max_cycle;Signal;HPM_P1;HPM_P2
2022/02/28 00:01:52;;;;;;;8.80;6.77;;;1.40;98.00;;;;;;6139234;23;20479;-91
2022/02/28 00:04:20;;;;;;;9.30;6.80;;;1.40;98.00;;;;;;6143586;23;20160;-91
2022/02/28 00:06:46;;;;;;;11.17;7.50;;;1.30;98.20;;;;;;6148495;23;20684;-92
2022/02/28 00:09:12;;;;;;;9.73;6.90;;;1.40;98.40;;;;;;6148093;23;20412;-92
2022/02/28 00:11:37;;;;;;;10.37;7.50;;;1.30;98.90;;;;;;6148120;23;20196;-91
2022/02/28 00:14:03;;;;;;;9.27;7.13;;;1.40;98.70;;;;;;6147572;23;20195;-91
2022/02/28 00:16:29;;;;;;;8.97;7.33;;;1.50;98.60;;;;;;6148738;23;20372;-91
2022/02/28 00:18:57;;;;;;;7.90;6.77;;;1.40;98.20;;;;;;6149697;23;20200;-92
2022/02/28 00:21:23;;;;;;;10.70;7.60;;;1.50;97.60;;;;;;6164573;23;20384;-91
2022/02/28 00:23:50;;;;;;;10.57;7.50;;;1.50;97.40;;;;;;6147648;23;20415;-90
2022/02/28 00:26:16;;;;;;;12.63;7.40;;;1.50;97.40;;;;;;6144115;23;20300;-90
2022/02/28 00:28:41;;;;;;;8.97;6.27;;;1.60;97.30;;;;;;6111779;23;20532;-90
2022/02/28 00:31:07;;;;;;;8.20;7.00;;;1.60;97.10;;;;;;6133686;23;20402;-90
2022/02/28 00:33:32;;;;;;;9.40;6.83;;;1.60;97.00;;;;;;6134075;23;20300;-91
2022/02/28 00:35:58;;;;;;;9.60;6.83;;;1.60;97.10;;;;;;6137921;23;20250;-91
2022/02/28 00:38:25;;;;;;;10.83;8.00;;;1.60;97.10;;;;;;6136278;23;20571;-91
2022/02/28 00:40:51;;;;;;;9.97;7.40;;;1.60;97.20;;;;;;6148152;23;20156;-91
2022/02/28 00:43:17;;;;;;;8.83;7.30;;;1.60;97.40;;;;;;6148459;23;20483;-90
2022/02/28 00:45:43;;;;;;;10.60;7.70;;;1.50;97.60;;;;;;6150204;23;20161;-90
2022/02/28 00:48:09;;;;;;;9.27;6.80;;;1.60;97.60;;;;;;6149699;23;20820;-90
2022/02/28 00:50:35;;;;;;;11.63;7.57;;;1.60;97.20;;;;;;6149224;23;20893;-90
2022/02/28 00:53:01;;;;;;;9.83;7.87;;;1.70;97.20;;;;;;6150861;23;20429;-90
2022/02/28 00:55:29;;;;;;;10.73;7.33;;;1.70;97.20;;;;;;6151497;23;20758;-90
2022/02/28 00:57:55;;;;;;;9.33;7.13;;;1.80;96.90;;;;;;6151052;23;20496;-90
2022/02/28 01:00:21;;;;;;;10.87;7.50;;;1.80;97.00;;;;;;6151163;23;20414;-91
2022/02/28 01:02:48;;;;;;;10.70;7.90;;;1.70;97.00;;;;;;6152029;23;20172;-90
2022/02/28 01:05:15;;;;;;;9.77;6.67;;;1.80;97.10;;;;;;6150559;23;20482;-90
2022/02/28 01:07:41;;;;;;;9.03;7.53;;;1.70;97.20;;;;;;6147578;23;20381;-91
2022/02/28 01:10:13;;;;;;;12.83;9.10;;;1.70;97.10;;;;;;6148544;23;20396;-91
2022/02/28 01:12:39;;;;;;;10.10;7.10;;;1.70;97.30;;;;;;6150189;23;20217;-91
2022/02/28 01:15:06;;;;;;;10.13;7.30;;;1.60;97.40;;;;;;6150865;23;20438;-91
2022/02/28 01:17:35;;;;;;;11.63;7.50;;;1.50;97.70;;;;;;6146160;23;20806;-91
2022/02/28 01:20:17;;;;;;;9.73;7.50;;;1.50;98.40;;;;;;6146106;23;20451;-91
2022/02/28 01:22:43;;;;;;;12.47;8.20;;;1.20;99.50;;;;;;6144027;23;20384;-91
2022/02/28 01:25:10;;;;;;;10.53;8.10;;;1.20;99.90;;;;;;6144996;23;20483;-91
2022/02/28 01:27:36;;;;;;;10.70;8.13;;;1.10;99.90;;;;;;6150257;23;20700;-91
2022/02/28 01:30:03;;;;;;;11.20;8.17;;;1.10;99.90;;;;;;6149267;23;20890;-91
2022/02/28 01:32:29;;;;;;;11.83;8.00;;;1.00;99.90;;;;;;6150116;23;20380;-90
2022/02/28 01:34:55;;;;;;;9.57;7.20;;;0.90;99.90;;;;;;6150167;23;20451;-91
2022/02/28 01:37:20;;;;;;;12.50;7.73;;;0.80;99.90;;;;;;6148709;23;20469;-91
2022/02/28 01:39:46;;;;;;;12.20;9.00;;;0.70;99.90;;;;;;6149768;23;20161;-90
2022/02/28 01:42:13;;;;;;;10.00;7.80;;;0.80;99.90;;;;;;6143965;23;20183;-90
2022/02/28 01:44:42;;;;;;;10.00;7.90;;;0.70;99.90;;;;;;6148603;23;20532;-90
2022/02/28 01:47:11;;;;;;;13.53;8.77;;;0.80;99.90;;;;;;6144101;23;20395;-91
2022/02/28 01:49:38;;;;;;;11.13;8.10;;;0.70;99.90;;;;;;6148519;23;20457;-90
2022/02/28 01:52:04;;;;;;;13.53;8.20;;;0.60;99.90;;;;;;6147050;23;20813;-90
2022/02/28 01:54:29;;;;;;;11.07;7.90;;;0.50;99.90;;;;;;6131682;23;20841;-90
2022/02/28 01:56:55;;;;;;;13.07;9.20;;;0.40;99.90;;;;;;6136043;23;20391;-90
2022/02/28 01:59:21;;;;;;;11.07;8.00;;;0.40;99.90;;;;;;6134825;23;20223;-90
2022/02/28 02:02:09;;;;;;;9.10;7.40;;;0.40;99.90;;;;;;6135667;23;20164;-91
2022/02/28 02:04:36;;;;;;;9.00;7.60;;;0.40;99.90;;;;;;6136615;23;20156;-91
2022/02/28 02:07:23;;;;;;;11.30;7.83;;;0.40;99.90;;;;;;6135374;23;20392;-91
2022/02/28 02:10:03;;;;;;;13.83;8.43;;;0.40;99.90;;;;;;6136425;23;20395;-91
2022/02/28 02:12:35;;;;;;;11.43;8.60;;;0.50;99.90;;;;;;6137412;23;20909;-91
2022/02/28 02:15:11;;;;;;;9.63;7.83;;;0.50;99.90;;;;;;6136598;23;20463;-91
2022/02/28 02:17:58;;;;;;;10.20;7.60;;;0.50;99.90;;;;;;6136701;23;20387;-91
2022/02/28 02:20:24;;;;;;;10.27;7.63;;;0.60;99.90;;;;;;6135802;23;20411;-91
2022/02/28 02:23:02;;;;;;;9.60;6.83;;;0.50;99.90;;;;;;6133689;23;20488;-90
2022/02/28 02:25:28;;;;;;;9.63;7.47;;;0.50;99.90;;;;;;6134019;23;20422;-90
2022/02/28 02:27:54;;;;;;;11.00;7.90;;;0.40;99.90;;;;;;6137867;23;20424;-90
2022/02/28 02:30:21;;;;;;;9.20;7.47;;;0.40;99.90;;;;;;6142686;23;20294;-90
2022/02/28 02:32:50;;;;;;;11.80;7.87;;;0.50;99.90;;;;;;6137836;23;20400;-90
2022/02/28 02:35:17;;;;;;;10.57;8.30;;;0.50;99.90;;;;;;6136707;23;20435;-90
2022/02/28 02:37:51;;;;;;;10.93;7.20;;;0.50;99.90;;;;;;6136876;23;20500;-90
2022/02/28 02:40:20;;;;;;;10.10;7.40;;;0.60;99.90;;;;;;6137053;23;20434;-90
2022/02/28 02:42:53;;;;;;;8.40;7.07;;;0.40;99.90;;;;;;6138196;23;20387;-90
2022/02/28 02:45:22;;;;;;;9.67;7.40;;;0.30;99.90;;;;;;6142268;23;20395;-90
2022/02/28 02:47:48;;;;;;;9.40;6.90;;;0.40;99.90;;;;;;6138379;23;20449;-89
2022/02/28 02:50:16;;;;;;;9.33;7.50;;;0.40;99.90;;;;;;6134834;23;20408;-90
2022/02/28 02:52:42;;;;;;;13.50;7.87;;;0.30;99.90;;;;;;6141716;23;20775;-89
2022/02/28 02:55:10;;;;;;;9.83;7.50;;;0.30;99.90;;;;;;6143072;23;20606;-89
2022/02/28 02:57:39;;;;;;;9.83;7.83;;;0.30;99.90;;;;;;6138399;23;20160;-90
2022/02/28 03:00:14;;;;;;;11.07;7.30;;;0.30;99.90;;;;;;6140481;23;20396;-90
2022/02/28 03:02:42;;;;;;;12.63;7.90;;;0.30;99.90;;;;;;6138859;23;20384;-89
2022/02/28 03:05:08;;;;;;;8.87;7.57;;;0.30;99.90;;;;;;6135260;23;20396;-89
2022/02/28 03:07:33;;;;;;;12.33;8.23;;;0.30;99.90;;;;;;6143711;23;20771;-90
2022/02/28 03:10:02;;;;;;;11.73;7.90;;;0.00;99.90;;;;;;6146524;23;20400;-90
2022/02/28 03:12:28;;;;;;;10.47;8.03;;;0.10;99.90;;;;;;6147768;23;20227;-90
2022/02/28 03:14:56;;;;;;;10.30;8.10;;;0.30;99.90;;;;;;6151565;23;20439;-91
2022/02/28 03:17:22;;;;;;;12.30;8.03;;;0.20;99.90;;;;;;6141449;23;20627;-91
2022/02/28 03:19:52;;;;;;;10.20;7.27;;;0.20;99.90;;;;;;6155677;23;20697;-91
2022/02/28 03:22:18;;;;;;;10.53;8.27;;;0.20;99.90;;;;;;6142261;23;20206;-91
2022/02/28 03:24:49;;;;;;;10.17;7.57;;;0.20;99.90;;;;;;6137875;23;20945;-91
2022/02/28 03:27:17;;;;;;;9.03;6.77;;;0.20;99.90;;;;;;6138296;23;20188;-91
2022/02/28 03:29:43;;;;;;;17.30;8.03;;;0.10;99.90;;;;;;6136516;23;20431;-91
2022/02/28 03:32:09;;;;;;;10.50;7.40;;;0.20;99.90;;;;;;6136258;23;20485;-92
2022/02/28 03:34:36;;;;;;;12.93;7.60;;;0.20;99.90;;;;;;6135552;23;20194;-91
2022/02/28 03:37:04;;;;;;;11.67;8.80;;;0.20;99.90;;;;;;6136777;23;20759;-92
2022/02/28 03:39:30;;;;;;;10.70;8.10;;;0.30;99.90;;;;;;6135402;23;20161;-91
2022/02/28 03:41:56;;;;;;;12.30;7.87;;;0.20;99.90;;;;;;6135066;23;20383;-92
2022/02/28 03:44:27;;;;;;;13.13;8.57;;;0.20;99.90;;;;;;6133758;23;20164;-92
2022/02/28 03:46:53;;;;;;;12.33;7.80;;;0.20;99.90;;;;;;6136503;23;20227;-91
2022/02/28 03:49:19;;;;;;;11.23;7.77;;;0.10;99.90;;;;;;6145915;23;20469;-90
2022/02/28 03:51:46;;;;;;;11.77;7.67;;;0.10;99.90;;;;;;6148604;23;20236;-91
2022/02/28 03:54:12;;;;;;;9.27;7.37;;;0.00;99.90;;;;;;6148307;23;20698;-91
2022/02/28 03:56:39;;;;;;;13.90;8.70;;;0.00;99.90;;;;;;6145170;23;20392;-90
2022/02/28 03:59:10;;;;;;;10.67;7.43;;;-0.10;99.90;;;;;;6138962;23;20399;-90
2022/02/28 04:01:36;;;;;;;14.13;7.63;;;-0.10;99.90;;;;;;6135881;23;20603;-90
2022/02/28 04:04:04;;;;;;;10.70;7.30;;;-0.10;99.90;;;;;;6135589;23;20410;-91
2022/02/28 04:06:30;;;;;;;11.40;7.13;;;-0.10;99.90;;;;;;6134940;23;20168;-91
2022/02/28 04:08:56;;;;;;;10.33;8.33;;;-0.10;99.90;;;;;;6135983;23;20396;-91
2022/02/28 04:11:22;;;;;;;10.50;7.30;;;-0.20;99.90;;;;;;6138983;23;20395;-91
2022/02/28 04:13:47;;;;;;;10.30;7.63;;;-0.10;99.90;;;;;;6137731;23;20440;-91
2022/02/28 04:16:13;;;;;;;15.47;7.13;;;-0.10;99.90;;;;;;6142933;23;20187;-91
2022/02/28 04:18:40;;;;;;;14.60;8.40;;;-0.10;99.90;;;;;;6140574;23;20161;-91
2022/02/28 04:21:06;;;;;;;9.63;7.33;;;-0.10;99.90;;;;;;6137942;23;20161;-91
2022/02/28 04:23:32;;;;;;;12.33;8.23;;;-0.20;99.90;;;;;;6138883;23;20392;-90
2022/02/28 04:26:00;;;;;;;9.83;7.27;;;-0.30;99.90;;;;;;6145771;23;20403;-91
2022/02/28 04:28:26;;;;;;;10.90;7.87;;;-0.30;99.90;;;;;;6142845;23;20160;-91
2022/02/28 04:30:51;;;;;;;12.73;7.83;;;-0.30;99.90;;;;;;6145292;23;20394;-90
2022/02/28 04:33:39;;;;;;;12.23;7.73;;;-0.30;99.90;;;;;;6142427;23;20387;-91
2022/02/28 04:36:06;;;;;;;13.03;8.00;;;-0.40;99.90;;;;;;6139334;23;20183;-91
2022/02/28 04:38:32;;;;;;;11.97;7.77;;;-0.70;99.90;;;;;;6140040;23;20951;-92
2022/02/28 04:40:57;;;;;;;13.13;8.50;;;-0.90;99.90;;;;;;6141778;23;21274;-90
2022/02/28 04:43:23;;;;;;;10.70;8.07;;;-0.70;99.90;;;;;;6142330;23;20471;-92
2022/02/28 04:45:49;;;;;;;14.00;8.90;;;-0.70;99.90;;;;;;6139987;23;20243;-91
2022/02/28 04:48:15;;;;;;;14.50;9.00;;;-0.70;99.90;;;;;;6152271;23;20603;-91
2022/02/28 04:50:41;;;;;;;14.40;7.80;;;-0.70;99.90;;;;;;6152483;23;20403;-91
2022/02/28 04:53:06;;;;;;;13.83;8.83;;;-0.70;99.90;;;;;;6144931;23;20153;-91
2022/02/28 04:55:32;;;;;;;11.27;8.60;;;-0.70;99.90;;;;;;6146911;23;20200;-90
2022/02/28 04:57:58;;;;;;;10.23;7.33;;;-0.50;99.90;;;;;;6140036;23;20495;-91
2022/02/28 05:03:07;;;;;;;15.17;8.30;;;-0.30;99.90;;;;;;6166695;23;20179;-92
2022/02/28 05:05:33;;;;;;;11.67;7.30;;;-0.30;99.90;;;;;;6139153;23;20391;-92
2022/02/28 05:07:59;;;;;;;10.10;8.07;;;-0.40;99.90;;;;;;6140204;23;20160;-92
2022/02/28 05:10:24;;;;;;;10.93;7.20;;;-0.50;99.90;;;;;;6138497;23;20161;-92
2022/02/28 05:12:53;;;;;;;11.20;7.27;;;-0.50;99.90;;;;;;6138752;23;20165;-92
2022/02/28 05:15:19;;;;;;;12.13;8.30;;;-0.60;99.90;;;;;;6133926;23;20193;-92
2022/02/28 05:18:00;;;;;;;12.47;7.90;;;-0.70;99.90;;;;;;6145061;23;20883;-92
2022/02/28 05:20:32;;;;;;;11.83;7.43;;;-0.70;99.90;;;;;;6134656;23;20171;-92
2022/02/28 05:22:59;;;;;;;12.73;7.33;;;-0.80;99.90;;;;;;6139942;23;20392;-92
2022/02/28 05:25:26;;;;;;;11.57;8.33;;;-0.80;99.90;;;;;;6137709;23;20771;-91
2022/02/28 05:27:58;;;;;;;15.33;8.90;;;-0.80;99.90;;;;;;6145490;23;20396;-92
2022/02/28 05:30:27;;;;;;;10.90;8.03;;;-0.70;99.90;;;;;;6148691;23;20380;-92
2022/02/28 05:32:55;;;;;;;11.40;7.50;;;-0.70;99.90;;;;;;6148769;23;20913;-92
2022/02/28 05:35:23;;;;;;;14.60;8.80;;;-0.70;99.90;;;;;;6144605;23;20439;-92
2022/02/28 05:37:51;;;;;;;13.43;8.67;;;-0.70;99.90;;;;;;6141478;23;20394;-92
2022/02/28 05:40:19;;;;;;;12.93;8.40;;;-0.70;99.90;;;;;;6147212;23;20408;-92
2022/02/28 05:42:45;;;;;;;17.43;9.17;;;-0.70;99.90;;;;;;6141627;23;20384;-91
2022/02/28 05:45:14;;;;;;;13.73;9.60;;;-0.70;99.90;;;;;;6137106;23;20399;-91
2022/02/28 05:47:42;;;;;;;13.80;8.80;;;-0.70;99.90;;;;;;6136063;23;20622;-91
2022/02/28 05:50:11;;;;;;;11.80;7.87;;;-0.70;99.90;;;;;;6139879;23;20705;-92
2022/02/28 05:52:37;;;;;;;14.27;9.40;;;-0.90;99.90;;;;;;6138848;23;20502;-91
2022/02/28 05:55:04;;;;;;;13.63;9.07;;;-0.90;99.90;;;;;;6142514;23;21034;-91
2022/02/28 05:57:41;;;;;;;12.43;8.67;;;-0.90;99.90;;;;;;6142067;23;20388;-92
2022/02/28 06:00:08;;;;;;;11.37;8.50;;;-0.90;99.90;;;;;;6142728;23;20441;-92
2022/02/28 06:02:34;;;;;;;12.33;9.00;;;-0.90;99.90;;;;;;6138278;23;20451;-92
2022/02/28 06:05:00;;;;;;;14.67;10.17;;;-1.00;99.90;;;;;;6139927;23;20482;-91
2022/02/28 06:07:25;;;;;;;16.87;10.50;;;-1.00;99.90;;;;;;6134681;23;20456;-90
2022/02/28 06:10:48;;;;;;;14.40;10.50;;;-1.00;99.90;;;;;;6142008;23;20156;-92
2022/02/28 06:13:50;;;;;;;18.57;12.40;;;-1.20;99.90;;;;;;6158905;23;20163;-92
2022/02/28 06:16:22;;;;;;;20.93;14.30;;;-1.10;99.90;;;;;;6139233;23;20400;-92
2022/02/28 06:18:51;;;;;;;21.20;12.33;;;-1.10;99.90;;;;;;6142491;23;20845;-88
2022/02/28 06:21:16;;;;;;;22.33;12.33;;;-1.10;99.90;;;;;;6140874;23;20396;-91
2022/02/28 06:23:46;;;;;;;14.33;11.00;;;-0.90;99.90;;;;;;6139593;23;20907;-93
2022/02/28 06:26:14;;;;;;;14.10;9.97;;;-0.90;99.90;;;;;;6158007;23;20206;-91
2022/02/28 06:28:41;;;;;;;15.87;10.27;;;-0.90;99.90;;;;;;6135786;23;20392;-92
2022/02/28 06:31:22;;;;;;;18.93;12.30;;;-0.90;99.90;;;;;;6140941;23;20391;-92
2022/02/28 06:33:48;;;;;;;17.70;9.83;;;-0.90;99.90;;;;;;6145901;23;20435;-92
2022/02/28 06:36:22;;;;;;;13.43;9.30;;;-0.90;99.90;;;;;;6140781;23;20457;-91
2022/02/28 06:38:52;;;;;;;14.17;9.87;;;-0.90;99.90;;;;;;6138458;23;20675;-92
2022/02/28 06:41:17;;;;;;;16.60;10.60;;;-0.90;99.90;;;;;;6137286;23;20472;-92
2022/02/28 06:43:43;;;;;;;16.67;10.57;;;-0.80;99.90;;;;;;6138343;23;20429;-91
2022/02/28 06:46:31;;;;;;;16.33;10.87;;;-0.70;99.90;;;;;;6159660;23;20160;-91
2022/02/28 06:49:03;;;;;;;14.77;10.77;;;-0.80;99.90;;;;;;6165876;23;20394;-91
2022/02/28 06:51:50;;;;;;;15.30;11.23;;;-0.70;99.90;;;;;;6135378;23;20891;-92
2022/02/28 06:54:17;;;;;;;16.40;10.20;;;-0.50;99.90;;;;;;6137218;23;20435;-92
2022/02/28 06:56:58;;;;;;;11.77;9.03;;;-0.40;99.90;;;;;;6134682;23;20397;-91
2022/02/28 06:59:25;;;;;;;12.67;9.73;;;-0.30;99.90;;;;;;6115800;23;20438;-92
2022/02/28 07:01:57;;;;;;;10.97;8.60;;;-0.20;99.90;;;;;;6137125;23;20716;-91
2022/02/28 07:04:53;;;;;;;14.13;9.13;;;-0.10;99.90;;;;;;6113750;23;20587;-91
2022/02/28 07:07:30;;;;;;;10.70;8.20;;;-0.10;99.90;;;;;;6139544;23;20392;-91
2022/02/28 07:09:56;;;;;;;11.77;8.50;;;0.10;99.90;;;;;;6135880;23;20628;-91
2022/02/28 07:12:23;;;;;;;14.50;9.90;;;0.20;99.90;;;;;;6133250;23;20457;-90
2022/02/28 07:14:49;;;;;;;11.87;9.70;;;0.30;99.90;;;;;;6129896;23;20474;-91
2022/02/28 07:17:15;;;;;;;13.20;9.33;;;0.30;99.90;;;;;;6130713;23;20392;-91
2022/02/28 07:19:40;;;;;;;11.57;8.63;;;0.30;99.90;;;;;;6132365;23;20183;-90
2022/02/28 07:22:06;;;;;;;14.43;9.53;;;0.40;99.90;;;;;;6134418;23;20157;-90
2022/02/28 07:24:32;;;;;;;10.27;8.20;;;0.50;99.90;;;;;;6132684;23;20477;-91
2022/02/28 07:27:01;;;;;;;14.53;8.73;;;0.60;99.90;;;;;;6135419;23;20481;-91
2022/02/28 07:29:32;;;;;;;16.03;9.37;;;0.70;99.90;;;;;;6135048;23;20160;-92
2022/02/28 07:31:58;;;;;;;12.73;8.93;;;0.80;99.90;;;;;;6139853;23;20392;-91
2022/02/28 07:34:25;;;;;;;13.27;9.40;;;0.90;99.90;;;;;;6134842;23;20438;-90
2022/02/28 07:36:51;;;;;;;14.93;9.30;;;1.10;99.90;;;;;;6136853;23;20160;-91
2022/02/28 07:39:18;;;;;;;11.30;9.07;;;1.20;99.90;;;;;;6133799;23;20423;-90
2022/02/28 07:41:48;;;;;;;12.37;8.53;;;1.40;99.90;;;;;;6165391;23;20187;-90
2022/02/28 07:44:14;;;;;;;12.40;9.43;;;1.50;99.90;;;;;;6141891;23;20419;-89
2022/02/28 07:46:40;;;;;;;11.50;8.93;;;1.60;99.90;;;;;;6143740;23;20384;-90
2022/02/28 07:49:06;;;;;;;9.17;8.20;;;1.90;99.90;;;;;;6140872;23;20957;-90
2022/02/28 07:51:34;;;;;;;14.53;10.17;;;2.10;99.90;;;;;;6136953;23;20400;-91
2022/02/28 07:54:00;;;;;;;16.20;9.63;;;2.20;99.90;;;;;;6133406;23;20186;-90
2022/02/28 07:56:25;;;;;;;11.73;9.10;;;2.50;99.90;;;;;;6134606;23;20979;-91
2022/02/28 07:58:52;;;;;;;14.83;10.13;;;2.70;99.90;;;;;;6137492;23;20533;-90
2022/02/28 08:01:58;;;;;;;13.10;9.80;;;2.90;99.90;;;;;;6159981;23;20496;-90
2022/02/28 08:04:38;;;;;;;15.20;9.63;;;3.20;99.90;;;;;;6142849;23;20828;-89
2022/02/28 08:08:10;;;;;;;13.90;9.43;;;3.30;99.90;;;;;;6163034;23;20960;-91
2022/02/28 08:10:39;;;;;;;11.90;8.67;;;3.50;99.90;;;;;;6139294;23;20402;-90
2022/02/28 08:13:05;;;;;;;13.00;10.30;;;3.90;99.60;;;;;;6138524;23;20710;-89
2022/02/28 08:15:34;;;;;;;13.70;9.50;;;4.20;98.60;;;;;;6136157;23;20819;-89
2022/02/28 08:18:07;;;;;;;11.87;9.50;;;4.10;96.50;;;;;;6142220;23;20450;-90
2022/02/28 08:20:33;;;;;;;13.83;10.13;;;4.30;97.00;;;;;;6135419;23;20953;-90
2022/02/28 08:23:01;;;;;;;11.87;9.00;;;4.50;96.80;;;;;;6140701;23;20392;-90
2022/02/28 08:25:29;;;;;;;9.97;8.50;;;4.60;96.30;;;;;;6136333;23;20395;-91
2022/02/28 08:27:55;;;;;;;16.03;11.00;;;4.80;95.60;;;;;;6137178;23;20471;-91
2022/02/28 08:30:44;;;;;;;13.60;9.23;;;5.10;95.10;;;;;;6140369;23;20383;-91
2022/02/28 08:33:09;;;;;;;11.20;8.50;;;5.20;95.00;;;;;;6141507;23;20169;-91
2022/02/28 08:35:40;;;;;;;14.50;10.80;;;5.40;94.30;;;;;;6136470;23;20487;-91
2022/02/28 08:38:06;;;;;;;12.50;9.80;;;5.50;93.30;;;;;;6138833;23;20156;-90
2022/02/28 08:40:38;;;;;;;12.53;9.30;;;5.50;93.80;;;;;;6134912;23;20402;-90
2022/02/28 08:43:26;;;;;;;12.60;9.93;;;5.60;94.00;;;;;;6135476;23;20550;-91
2022/02/28 08:45:54;;;;;;;10.67;9.07;;;5.70;93.40;;;;;;6163982;23;20437;-91
2022/02/28 08:48:19;;;;;;;12.10;8.93;;;5.80;93.20;;;;;;6136733;23;20392;-93
2022/02/28 08:50:50;;;;;;;13.90;9.10;;;5.90;92.50;;;;;;6136076;23;20399;-91
2022/02/28 08:53:16;;;;;;;9.90;7.77;;;6.10;92.70;;;;;;6135596;23;20183;-92
2022/02/28 08:55:41;;;;;;;14.60;9.20;;;6.20;91.80;;;;;;6133062;23;20449;-90
2022/02/28 08:58:14;;;;;;;13.17;10.13;;;6.10;91.50;;;;;;6131127;23;20184;-92
2022/02/28 09:00:40;;;;;;;12.00;9.70;;;6.10;91.90;;;;;;6132000;23;20556;-90
2022/02/28 09:03:08;;;;;;;13.63;8.90;;;6.30;90.80;;;;;;6133995;23;20485;-92
2022/02/28 09:05:37;;;;;;;11.90;9.07;;;6.50;90.90;;;;;;6136157;23;20672;-92
2022/02/28 09:08:03;;;;;;;12.67;10.00;;;6.30;91.10;;;;;;6135923;23;20787;-91
2022/02/28 09:10:29;;;;;;;17.27;10.50;;;6.50;91.30;;;;;;6141345;23;20428;-91
2022/02/28 09:13:00;;;;;;;13.67;9.87;;;6.70;90.40;;;;;;6136457;23;20835;-92
2022/02/28 09:15:29;;;;;;;11.20;8.80;;;6.60;91.20;;;;;;6133959;23;20442;-92
2022/02/28 09:17:55;;;;;;;11.33;9.10;;;6.80;90.30;;;;;;6140202;23;20431;-92
2022/02/28 09:20:21;;;;;;;13.43;10.67;;;6.80;90.80;;;;;;6136710;23;20765;-92
2022/02/28 09:22:47;;;;;;;12.30;9.63;;;6.70;90.60;;;;;;6133574;23;20399;-91
2022/02/28 09:25:12;;;;;;;15.43;11.00;;;6.60;90.70;;;;;;6133936;23;20522;-90
2022/02/28 09:27:39;;;;;;;11.80;9.03;;;6.50;92.00;;;;;;6133890;23;20171;-92
2022/02/28 09:30:06;;;;;;;10.83;9.73;;;6.40;92.30;;;;;;6137435;23;20179;-93
2022/02/28 09:32:44;;;;;;;15.77;11.27;;;6.40;90.80;;;;;;6165735;23;20845;-92
2022/02/28 09:35:11;;;;;;;12.53;9.20;;;6.70;91.00;;;;;;6138036;23;20435;-92
2022/02/28 09:37:36;;;;;;;11.73;9.20;;;6.90;90.00;;;;;;6137929;23;20764;-93
2022/02/28 09:40:04;;;;;;;9.80;8.80;;;6.80;90.50;;;;;;6137298;23;20399;-92
2022/02/28 09:42:31;;;;;;;12.10;9.23;;;7.10;90.00;;;;;;6134716;23;20598;-92
2022/02/28 09:44:59;;;;;;;8.87;8.07;;;7.20;90.20;;;;;;6134284;23;20399;-92
2022/02/28 09:47:30;;;;;;;12.23;8.63;;;7.20;88.70;;;;;;6136206;23;20392;-92
2022/02/28 09:49:57;;;;;;;10.23;8.50;;;7.20;88.60;;;;;;6134109;23;20494;-93
2022/02/28 09:52:23;;;;;;;11.27;9.20;;;7.30;87.90;;;;;;6134801;23;20964;-92
2022/02/28 09:54:50;;;;;;;13.33;9.00;;;7.50;87.80;;;;;;6135461;23;20534;-92
2022/02/28 09:57:18;;;;;;;10.77;9.23;;;7.60;87.60;;;;;;6135498;23;20153;-91
2022/02/28 09:59:57;;;;;;;10.87;9.27;;;7.90;87.10;;;;;;6132080;23;20758;-92
2022/02/28 10:02:23;;;;;;;14.07;9.50;;;8.00;85.80;;;;;;6137527;23;20390;-91
2022/02/28 10:04:57;;;;;;;18.00;9.03;;;8.00;86.60;;;;;;6157568;23;21014;-91
2022/02/28 10:07:26;;;;;;;10.80;9.70;;;8.00;87.60;;;;;;6136279;23;20403;-92
2022/02/28 10:10:09;;;;;;;12.30;9.73;;;8.00;85.60;;;;;;6131830;23;20416;-90
2022/02/28 10:12:46;;;;;;;11.30;10.03;;;8.10;86.00;;;;;;6140097;23;20394;-91
2022/02/28 10:15:15;;;;;;;12.00;9.77;;;8.40;86.80;;;;;;6133441;23;20446;-92
2022/02/28 10:17:45;;;;;;;11.50;9.50;;;8.50;84.50;;;;;;6136788;23;20393;-90
2022/02/28 10:23:09;;;;;;;11.27;9.83;;;10.50;84.70;;;;;;6159562;23;20453;-89
2022/02/28 10:25:51;;;;;;;13.33;9.73;;;9.20;82.10;;;;;;6135898;23;20724;-91
2022/02/28 10:28:17;;;;;;;11.50;9.13;;;9.10;81.10;;;;;;6136494;23;20717;-91
2022/02/28 10:31:03;;;;;;;12.83;10.07;;;9.40;82.20;;;;;;6140159;23;20396;-92
2022/02/28 10:33:32;;;;;;;10.73;9.63;;;9.60;77.80;;;;;;6140551;23;20160;-92
2022/02/28 10:36:25;;;;;;;11.53;9.60;;;9.70;79.00;;;;;;6138359;23;20684;-92
2022/02/28 10:38:53;;;;;;;10.77;9.60;;;9.80;74.50;;;;;;6143320;23;20393;-91
2022/02/28 10:41:45;;;;;;;10.70;9.40;;;9.60;75.20;;;;;;6143299;23;20523;-90
2022/02/28 10:44:13;;;;;;;10.43;9.27;;;10.00;76.70;;;;;;6141198;23;20420;-92
2022/02/28 10:46:44;;;;;;;12.10;9.50;;;10.00;75.00;;;;;;6142467;23;20418;-90
2022/02/28 10:49:21;;;;;;;10.53;8.97;;;10.10;72.20;;;;;;6143029;23;20388;-90
2022/02/28 10:51:50;;;;;;;10.83;9.73;;;10.00;71.00;;;;;;6139779;23;20396;-90
2022/02/28 10:54:20;;;;;;;9.43;8.40;;;10.30;71.90;;;;;;6139372;23;20496;-90
2022/02/28 10:57:03;;;;;;;9.10;8.03;;;10.40;63.10;;;;;;6139258;23;20697;-90
2022/02/28 10:59:45;;;;;;;10.90;8.00;;;10.50;65.90;;;;;;6140619;23;20843;-90
2022/02/28 11:02:29;;;;;;;10.87;8.70;;;10.50;65.60;;;;;;6140197;23;20731;-90
2022/02/28 11:05:26;;;;;;;10.57;8.63;;;10.50;62.30;;;;;;6135816;23;20388;-88
2022/02/28 11:08:09;;;;;;;9.50;8.37;;;10.70;63.10;;;;;;6166527;23;20386;-90
2022/02/28 11:10:37;;;;;;;10.20;8.77;;;11.10;60.60;;;;;;6137994;23;20738;-88
2022/02/28 11:13:02;;;;;;;10.73;8.37;;;11.20;60.00;;;;;;6114475;23;20925;-88
2022/02/28 11:15:51;;;;;;;10.87;9.70;;;11.00;60.70;;;;;;6146339;23;20447;-90
2022/02/28 11:18:23;;;;;;;10.60;9.10;;;10.70;62.30;;;;;;6134340;23;20402;-91
2022/02/28 11:20:56;;;;;;;11.00;8.60;;;11.00;59.30;;;;;;6165290;23;20421;-90
2022/02/28 11:23:23;;;;;;;12.93;9.00;;;10.90;60.20;;;;;;6139124;23;20407;-89
2022/02/28 11:25:52;;;;;;;9.10;7.80;;;11.20;59.30;;;;;;6137948;23;20892;-89
2022/02/28 11:28:28;;;;;;;11.80;8.90;;;11.30;58.60;;;;;;6136844;23;20404;-89
2022/02/28 11:31:11;;;;;;;11.40;8.90;;;11.40;58.40;;;;;;6127558;23;20397;-89
2022/02/28 11:33:39;;;;;;;9.53;8.23;;;11.10;58.00;;;;;;6137412;23;20391;-88
2022/02/28 11:36:06;;;;;;;10.20;8.63;;;11.00;56.50;;;;;;6132950;23;20384;-89
2022/02/28 11:38:32;;;;;;;12.50;9.43;;;10.90;57.40;;;;;;6134733;23;21143;-89
2022/02/28 11:41:04;;;;;;;10.97;8.27;;;11.00;56.80;;;;;;6133157;23;20430;-90
2022/02/28 11:43:31;;;;;;;10.57;9.10;;;11.00;56.30;;;;;;6134627;23;20381;-88
2022/02/28 11:46:12;;;;;;;12.57;9.73;;;11.00;59.40;;;;;;6138320;23;20471;-88
2022/02/28 11:48:46;;;;;;;10.47;8.60;;;11.20;59.90;;;;;;6145865;23;20462;-89
2022/02/28 11:51:31;;;;;;;11.23;7.80;;;11.40;60.80;;;;;;6131611;23;20439;-89
2022/02/28 11:54:25;;;;;;;11.90;9.33;;;11.80;64.10;;;;;;6160393;23;20458;-89
2022/02/28 11:56:54;;;;;;;10.73;9.10;;;11.90;56.60;;;;;;6132667;23;20396;-89
2022/02/28 11:59:36;;;;;;;10.00;9.00;;;11.60;56.60;;;;;;6133441;23;20903;-89
2022/02/28 12:02:09;;;;;;;9.70;8.70;;;11.70;58.50;;;;;;6131239;23;20376;-89
2022/02/28 12:04:42;;;;;;;11.03;9.13;;;12.20;59.30;;;;;;6153614;23;20423;-88
2022/02/28 12:07:29;;;;;;;10.70;8.90;;;12.10;57.30;;;;;;6136305;23;20395;-88
2022/02/28 12:10:12;;;;;;;10.33;8.60;;;11.70;56.90;;;;;;6133810;23;20791;-88
2022/02/28 12:12:56;;;;;;;11.20;9.67;;;11.50;57.40;;;;;;6132443;23;20948;-89
2022/02/28 12:15:28;;;;;;;9.30;8.40;;;11.90;58.30;;;;;;6153413;23;20435;-89
2022/02/28 12:18:00;;;;;;;9.13;8.20;;;12.30;55.40;;;;;;6130879;23;20402;-89
2022/02/28 12:20:30;;;;;;;10.47;9.40;;;12.70;51.10;;;;;;6157471;23;20836;-89
2022/02/28 12:23:13;;;;;;;10.10;9.10;;;12.80;54.70;;;;;;6131904;23;20383;-89
2022/02/28 12:25:46;;;;;;;9.80;8.80;;;12.50;55.80;;;;;;6135983;23;20384;-90
2022/02/28 12:28:21;;;;;;;11.70;8.70;;;12.40;56.70;;;;;;6137028;23;20436;-89
2022/02/28 12:30:52;;;;;;;10.40;8.13;;;12.20;54.20;;;;;;6132602;23;20468;-89
2022/02/28 12:33:20;;;;;;;11.50;10.00;;;12.30;55.30;;;;;;6133961;23;21300;-89
2022/02/28 12:35:51;;;;;;;11.20;9.20;;;12.50;55.90;;;;;;6136114;23;20435;-90
2022/02/28 12:38:17;;;;;;;16.53;10.57;;;12.40;56.00;;;;;;6139337;23;20399;-89
2022/02/28 12:40:51;;;;;;;11.00;9.73;;;12.50;57.60;;;;;;6137210;23;20391;-90
2022/02/28 12:43:25;;;;;;;12.90;9.57;;;13.00;55.30;;;;;;6135243;23;20407;-89
2022/02/28 12:45:53;;;;;;;10.90;9.40;;;13.30;54.00;;;;;;6137043;23;20415;-89
2022/02/28 12:48:20;;;;;;;10.63;9.27;;;13.50;53.70;;;;;;6135167;23;20470;-91
2022/02/28 12:51:00;;;;;;;12.40;10.70;;;13.70;52.50;;;;;;6133736;23;21145;-91
2022/02/28 12:53:28;;;;;;;11.13;9.33;;;13.50;54.50;;;;;;6133171;23;21167;-91
2022/02/28 12:55:56;;;;;;;11.33;9.07;;;13.30;54.10;;;;;;6134128;23;20506;-91
2022/02/28 12:58:32;;;;;;;9.53;8.53;;;13.40;52.50;;;;;;6134984;23;20707;-91
2022/02/28 13:01:25;;;;;;;11.80;9.60;;;13.90;48.00;;;;;;6138306;23;20553;-90
2022/02/28 13:04:01;;;;;;;10.73;8.73;;;13.50;52.30;;;;;;6132906;23;20391;-90
2022/02/28 13:06:41;;;;;;;9.93;8.93;;;13.40;53.80;;;;;;6135640;23;20401;-90